Sturgeon Bay, WI

4:00 PM CDT on August 27, 2016 (GMT -0500)
MesoWest | | Change Station

Elev 737 ft 44.89 °N, 87.37 °W | Updated 1 hour ago

Overcast
Overcast
65.0 °F
Feels Like 65.0 °F
N
1.0
Wind Variable Wind from ESE
Gusts 0.0 mph

Today
High -- | Low -- °F
--% Chance of Precip.
Yesterday
High -- | Low -- °F
Precip. -- in
Pressure 30.10 in
Visibility 6.0 miles
Clouds Overcast 1200 ft
Dew Point 61.0 °F
Humidity 89%
Rainfall in
Snow Depth Not available.
6:06 AM 7:34 PM
Waning Crescent, 21% visible
METAR KSUE 272056Z AUTO 05004KT 6SM BR OVC012 18/16 A3005 RMK AO2 SLP192 60000 T01830161 58010
Pressure 30.10 in
Visibility 6.0 miles
Clouds Overcast 1200 ft
Dew Point 61.0 °F
Humidity 89%
Rainfall in
Snow Depth Not available.
6:06 AM 7:34 PM
Waning Crescent, 21% visible
METAR KSUE 272056Z AUTO 05004KT 6SM BR OVC012 18/16 A3005 RMK AO2 SLP192 60000 T01830161 58010

10-Day Weather Forecast

Almanac

Astronomy

Aug. 27, 2016 Rise Set
Actual Time
Civil Twilight
Nautical Twilight
Astronomical Twilight
Moon
Length of Visible Light
Length of Day
Tomorrow will be .
, % of the Moon is Illuminated

Today's Extremes

State Highs State Lows

Community

WunderPhotos

Upload Photos

1,935,438 photos uploaded!

WunderBlog® & News

Nearby

Air Quality

  Air Quality AQ Index Pollutant
Not available.

Snow Depth

Station Depth Elevation

Earthquake Activity

City Distance Mag. Time & Date
Minimum magnitude displayed is 2.5.

Coastal Water Temperatures

Place Temperature

Stations

Nearby Weather Stations

Station Location Temp. Windchill Dew Point Humidity Wind Precip. Elev Updated Type
                   

Watches & Warnings

There are currently no watches in effect.